createdAt,value
2023-02-12T00:00:09.004Z,0.14
2023-02-12T00:01:48.696Z,0.14
2023-02-12T00:03:28.474Z,0.15
2023-02-12T00:05:08.220Z,0.15
2023-02-12T00:06:48.005Z,0.15
2023-02-12T00:08:27.754Z,0.15
2023-02-12T00:10:07.528Z,0.15
2023-02-12T00:11:47.299Z,0.15
2023-02-12T00:13:27.069Z,0.17
2023-02-12T00:15:06.818Z,0.17
2023-02-12T00:16:46.558Z,0.15
2023-02-12T00:18:26.349Z,0.15
2023-02-12T00:20:06.091Z,0.14
2023-02-12T00:21:45.883Z,0.14
2023-02-12T00:23:25.638Z,0.14
2023-02-12T00:25:05.389Z,0.15
2023-02-12T00:26:45.182Z,0.15
2023-02-12T00:28:24.912Z,0.15
2023-02-12T00:30:04.682Z,0.15
2023-02-12T00:31:44.445Z,0.15
2023-02-12T00:33:24.231Z,0.15
2023-02-12T00:35:03.971Z,0.13
2023-02-12T00:36:43.741Z,0.13
2023-02-12T00:38:23.527Z,0.13
2023-02-12T00:40:03.269Z,0.13
2023-02-12T00:41:43.041Z,0.14
2023-02-12T00:43:22.825Z,0.14
2023-02-12T00:45:02.564Z,0.14
2023-02-12T00:46:42.326Z,0.14
2023-02-12T00:48:22.096Z,0.14
2023-02-12T00:50:01.870Z,0.14
2023-02-12T00:51:41.620Z,0.14
2023-02-12T00:53:21.393Z,0.14
2023-02-12T00:55:01.162Z,0.14
2023-02-12T00:56:40.947Z,0.15
2023-02-12T00:58:20.683Z,0.17
2023-02-12T01:00:00.440Z,0.17
2023-02-12T01:01:40.195Z,0.17
2023-02-12T01:03:19.955Z,0.17
2023-02-12T01:04:59.749Z,0.17
2023-02-12T01:06:39.479Z,0.17
2023-02-12T01:08:19.271Z,0.17
2023-02-12T01:09:59.066Z,0.17
2023-02-12T01:11:38.778Z,0.17
2023-02-12T01:13:18.563Z,0.16
2023-02-12T01:14:58.358Z,0.16
2023-02-12T01:16:38.082Z,0.14
2023-02-12T01:18:17.835Z,0.14
2023-02-12T01:19:57.593Z,0.14
2023-02-12T01:21:37.363Z,0.14
2023-02-12T01:23:17.149Z,0.14
2023-02-12T01:24:56.899Z,0.14
2023-02-12T01:26:36.659Z,0.14
2023-02-12T01:28:16.424Z,0.14
2023-02-12T01:29:56.195Z,0.14
2023-02-12T01:31:35.956Z,0.14
2023-02-12T01:33:15.717Z,0.14
2023-02-12T01:34:55.477Z,0.14
2023-02-12T01:36:35.240Z,0.14
2023-02-12T01:38:15.023Z,0.14
2023-02-12T01:39:54.771Z,0.14
2023-02-12T01:41:34.535Z,0.14
2023-02-12T01:43:14.285Z,0.13
2023-02-12T01:44:54.067Z,0.11
2023-02-12T01:46:33.834Z,0.11
2023-02-12T01:48:13.589Z,0.13
2023-02-12T01:49:53.365Z,0.13
2023-02-12T01:51:33.145Z,0.13
2023-02-12T01:53:12.889Z,0.13
2023-02-12T01:54:52.668Z,0.13
2023-02-12T01:56:32.502Z,0.11
2023-02-12T01:58:12.167Z,0.13
2023-02-12T01:59:51.944Z,0.13
2023-02-12T02:01:31.707Z,0.12
2023-02-12T02:03:11.469Z,0.12
2023-02-12T02:04:51.220Z,0.12
2023-02-12T02:06:31.001Z,0.12
2023-02-12T02:08:10.739Z,0.14
2023-02-12T02:09:50.524Z,0.14
2023-02-12T02:11:30.296Z,0.14
2023-02-12T02:13:10.094Z,0.14
2023-02-12T02:14:49.813Z,0.14
2023-02-12T02:16:29.583Z,0.13
2023-02-12T02:18:09.349Z,0.14
2023-02-12T02:19:49.100Z,0.14
2023-02-12T02:21:28.891Z,0.15
2023-02-12T02:23:08.634Z,0.17
2023-02-12T02:24:48.389Z,0.17
2023-02-12T02:26:28.162Z,0.17
2023-02-12T02:28:07.917Z,0.16
2023-02-12T02:29:47.695Z,0.16
2023-02-12T02:31:27.437Z,0.16
2023-02-12T02:33:07.195Z,0.14
2023-02-12T02:34:46.982Z,0.14
2023-02-12T02:36:26.745Z,0.16
2023-02-12T02:38:06.511Z,0.14
2023-02-12T02:39:46.276Z,0.16
2023-02-12T02:41:26.033Z,0.12
2023-02-12T02:43:05.807Z,0.13
2023-02-12T02:44:45.553Z,0.13
2023-02-12T02:46:25.344Z,0.13
2023-02-12T02:48:05.102Z,0.15
2023-02-12T02:49:44.847Z,0.13
2023-02-12T02:51:24.610Z,0.13
2023-02-12T02:53:04.378Z,0.11
2023-02-12T02:54:44.150Z,0.11
2023-02-12T02:56:23.912Z,0.11
2023-02-12T02:58:03.673Z,0.11
2023-02-12T02:59:43.435Z,0.12
2023-02-12T03:01:23.192Z,0.12
2023-02-12T03:03:02.988Z,0.12
2023-02-12T03:04:42.724Z,0.12
2023-02-12T03:06:22.485Z,0.12
2023-02-12T03:08:02.261Z,0.12
2023-02-12T03:09:42.017Z,0.12
2023-02-12T03:11:21.770Z,0.12
2023-02-12T03:13:01.542Z,0.12
2023-02-12T03:14:41.312Z,0.12
2023-02-12T03:16:21.062Z,0.12
2023-02-12T03:18:00.835Z,0.12
2023-02-12T03:19:40.617Z,0.12
2023-02-12T03:21:20.363Z,0.12
2023-02-12T03:23:00.138Z,0.13
2023-02-12T03:24:39.905Z,0.11
2023-02-12T03:26:19.664Z,0.13
2023-02-12T03:27:59.417Z,0.13
2023-02-12T03:29:39.194Z,0.13
2023-02-12T03:31:18.948Z,0.13
2023-02-12T03:32:58.717Z,0.13
2023-02-12T03:34:38.471Z,0.12
2023-02-12T03:36:18.240Z,0.12
2023-02-12T03:37:58.006Z,0.12
2023-02-12T03:39:37.772Z,0.14
2023-02-12T03:41:17.525Z,0.14
2023-02-12T03:42:57.310Z,0.15
2023-02-12T03:44:37.054Z,0.15
2023-02-12T03:46:16.825Z,0.13
2023-02-12T03:47:56.581Z,0.13
2023-02-12T03:49:36.345Z,0.14
2023-02-12T03:51:16.096Z,0.14
2023-02-12T03:52:55.887Z,0.12
2023-02-12T03:54:35.631Z,0.12
2023-02-12T03:56:15.394Z,0.14
2023-02-12T03:57:55.175Z,0.14
2023-02-12T03:59:34.934Z,0.13
2023-02-12T04:01:14.711Z,0.12
2023-02-12T04:02:54.472Z,0.1
2023-02-12T04:04:34.271Z,0.12
2023-02-12T04:06:14.013Z,0.09
2023-02-12T04:07:53.767Z,0.09
2023-02-12T04:09:33.495Z,0.09
2023-02-12T04:11:13.282Z,0.09
2023-02-12T04:12:53.060Z,0.09
2023-02-12T04:14:32.807Z,0.09
2023-02-12T04:16:12.594Z,0.09
2023-02-12T04:17:52.354Z,0.1
2023-02-12T04:19:32.090Z,0.1
2023-02-12T04:21:11.855Z,0.09
2023-02-12T04:22:51.632Z,0.09
2023-02-12T04:24:31.378Z,0.09
2023-02-12T04:26:11.150Z,0.08
2023-02-12T04:27:50.918Z,0.08
2023-02-12T04:29:30.684Z,0.07
2023-02-12T04:31:10.436Z,0.07
2023-02-12T04:32:50.209Z,0.07
2023-02-12T04:34:29.978Z,0.07
2023-02-12T04:36:09.735Z,0.07
2023-02-12T04:37:49.502Z,0.07
2023-02-12T04:39:29.259Z,0.07
2023-02-12T04:41:09.034Z,0.07
2023-02-12T04:42:48.791Z,0.06
2023-02-12T04:44:28.564Z,0.09
2023-02-12T04:46:08.323Z,0.08
2023-02-12T04:47:48.088Z,0.05
2023-02-12T04:49:27.839Z,0.06
2023-02-12T04:51:07.615Z,0.06
2023-02-12T04:52:47.388Z,0.07
2023-02-12T04:54:27.127Z,0.08
2023-02-12T04:56:06.921Z,0.07
2023-02-12T04:57:46.666Z,0.07
2023-02-12T04:59:26.416Z,0.07
2023-02-12T05:01:06.187Z,0.07
2023-02-12T05:02:45.964Z,0.07
2023-02-12T05:04:25.717Z,0.09
2023-02-12T05:06:05.480Z,0.07
2023-02-12T05:07:45.254Z,0.08
2023-02-12T05:09:25.008Z,0.08
2023-02-12T05:11:04.775Z,0.1
2023-02-12T05:12:44.558Z,0.14
2023-02-12T05:14:24.309Z,0.14
2023-02-12T05:16:04.074Z,0.16
2023-02-12T05:17:43.832Z,0.18
2023-02-12T05:19:23.594Z,0.2
2023-02-12T05:21:03.369Z,0.26
2023-02-12T05:22:43.129Z,0.3
2023-02-12T05:24:22.875Z,0.37
2023-02-12T05:26:02.642Z,0.45
2023-02-12T05:27:42.410Z,0.55
2023-02-12T05:29:22.179Z,0.68
2023-02-12T05:31:01.932Z,0.82
2023-02-12T05:32:41.710Z,1.04
2023-02-12T05:34:21.482Z,1.5
2023-02-12T05:36:01.228Z,2.07
2023-02-12T05:37:41.014Z,2.46
2023-02-12T05:39:20.755Z,2.59
2023-02-12T05:42:40.294Z,2.75
2023-02-12T05:44:20.041Z,3.13
2023-02-12T05:45:59.826Z,3.52
2023-02-12T05:47:39.571Z,3.91
2023-02-12T05:49:19.340Z,4.46
2023-02-12T05:50:59.098Z,4.96
2023-02-12T05:52:38.867Z,6.23
2023-02-12T05:54:18.634Z,8.28
2023-02-12T05:55:58.397Z,11.11
2023-02-12T05:59:17.921Z,12.54
2023-02-12T06:00:57.687Z,12.56
2023-02-12T06:02:37.446Z,12.59
2023-02-12T06:04:17.232Z,12.6
2023-02-12T06:05:56.973Z,12.61
2023-02-12T06:07:36.740Z,12.62
2023-02-12T06:09:16.498Z,12.63
2023-02-12T06:10:56.267Z,12.65
2023-02-12T06:12:36.059Z,12.66
2023-02-12T06:14:15.835Z,12.66
2023-02-12T06:15:55.558Z,12.67
2023-02-12T06:17:35.331Z,12.68
2023-02-12T06:19:15.075Z,12.7
2023-02-12T06:20:54.847Z,12.7
2023-02-12T06:22:34.622Z,12.71
2023-02-12T06:24:14.437Z,12.72
2023-02-12T06:25:54.161Z,12.73
2023-02-12T06:27:33.907Z,12.73
2023-02-12T06:29:13.675Z,12.74
2023-02-12T06:30:53.441Z,12.75
2023-02-12T06:32:33.214Z,12.77
2023-02-12T06:34:12.963Z,12.79
2023-02-12T06:35:52.727Z,12.79
2023-02-12T06:37:32.481Z,12.81
2023-02-12T06:39:12.261Z,20.2
2023-02-12T06:40:52.033Z,16.83
2023-02-12T06:42:31.789Z,22.2
2023-02-12T06:44:11.545Z,16.54
2023-02-12T06:45:51.331Z,15.16
2023-02-12T06:47:31.097Z,30.93
2023-02-12T06:49:10.829Z,21.47
2023-02-12T06:50:50.608Z,25.07
2023-02-12T06:52:30.358Z,16.9
2023-02-12T06:54:10.124Z,13.92
2023-02-12T06:55:49.891Z,13.91
2023-02-12T06:57:29.672Z,13.96
2023-02-12T06:59:09.417Z,13.99
2023-02-12T07:00:49.197Z,13.99
2023-02-12T07:02:28.989Z,13.96
2023-02-12T07:04:08.718Z,13.96
2023-02-12T07:05:48.493Z,13.95
2023-02-12T07:07:28.257Z,13.89
2023-02-12T07:09:08.062Z,13.92
2023-02-12T07:10:47.774Z,13.91
2023-02-12T07:12:27.543Z,13.97
2023-02-12T07:14:07.307Z,13.98
2023-02-12T07:15:47.055Z,14.02
2023-02-12T07:17:26.875Z,13.96
2023-02-12T07:19:06.581Z,14
2023-02-12T07:20:46.336Z,14.05
2023-02-12T07:22:26.140Z,14.08
2023-02-12T07:24:05.903Z,14.09
2023-02-12T07:25:45.632Z,14.14
2023-02-12T07:27:25.394Z,14.13
2023-02-12T07:29:05.173Z,14.16
2023-02-12T07:30:44.934Z,14.16
2023-02-12T07:32:24.692Z,14.18
2023-02-12T07:34:04.468Z,14.19
2023-02-12T07:35:44.237Z,14.2
2023-02-12T07:37:24.003Z,14.21
2023-02-12T07:39:03.750Z,14.24
2023-02-12T07:40:43.517Z,14.22
2023-02-12T07:42:23.287Z,14.23
2023-02-12T07:44:03.045Z,14.25
2023-02-12T07:45:42.814Z,14.24
2023-02-12T07:47:22.619Z,14.19
2023-02-12T07:49:02.355Z,14.24
2023-02-12T07:50:42.102Z,14.27
2023-02-12T07:52:21.861Z,42.22
2023-02-12T07:54:01.698Z,15.41
2023-02-12T07:55:41.459Z,14.33
2023-02-12T07:57:21.249Z,14.35
2023-02-12T07:59:00.982Z,14.36
2023-02-12T08:00:40.721Z,14.37
2023-02-12T08:02:20.463Z,14.34
2023-02-12T08:04:00.214Z,14.35
2023-02-12T08:05:40.061Z,14.37
2023-02-12T08:07:19.738Z,14.4
2023-02-12T08:08:59.499Z,14.47
2023-02-12T08:10:39.276Z,14.46
2023-02-12T08:12:19.082Z,14.48
2023-02-12T08:13:58.851Z,14.48
2023-02-12T08:15:38.551Z,14.47
2023-02-12T08:17:18.339Z,14.46
2023-02-12T08:18:58.132Z,14.48
2023-02-12T08:20:37.855Z,14.48
2023-02-12T08:22:17.739Z,14.51
2023-02-12T08:23:57.446Z,14.54
2023-02-12T08:25:37.151Z,14.6
2023-02-12T08:27:16.911Z,14.54
2023-02-12T08:28:56.664Z,14.56
2023-02-12T08:30:36.445Z,14.54
2023-02-12T08:32:16.260Z,14.55
2023-02-12T08:33:55.955Z,14.53
2023-02-12T08:35:35.742Z,14.53
2023-02-12T08:37:15.481Z,14.58
2023-02-12T08:38:55.256Z,14.56
2023-02-12T08:40:35.027Z,14.61
2023-02-12T08:42:14.858Z,14.6
2023-02-12T08:43:54.629Z,14.61
2023-02-12T08:45:34.304Z,14.64
2023-02-12T08:47:14.143Z,14.69
2023-02-12T08:48:53.841Z,14.71
2023-02-12T08:50:33.593Z,14.67
2023-02-12T08:52:13.363Z,14.7
2023-02-12T08:53:53.132Z,17.56
2023-02-12T08:55:32.887Z,14.69
2023-02-12T08:57:12.702Z,14.67
2023-02-12T08:58:52.415Z,14.71
2023-02-12T09:00:32.176Z,14.72
2023-02-12T09:02:11.936Z,14.77
2023-02-12T09:03:51.696Z,14.79
2023-02-12T09:05:31.528Z,14.87
2023-02-12T09:07:11.285Z,14.91
2023-02-12T09:08:50.998Z,14.88
2023-02-12T09:10:30.760Z,14.9
2023-02-12T09:12:10.556Z,14.91
2023-02-12T09:13:50.309Z,14.88
2023-02-12T09:15:30.054Z,14.86
2023-02-12T09:17:09.839Z,14.89
2023-02-12T09:18:49.581Z,14.89
2023-02-12T09:20:29.333Z,14.93
2023-02-12T09:22:09.120Z,14.94
2023-02-12T09:23:48.873Z,14.92
2023-02-12T09:25:28.650Z,14.94
2023-02-12T09:27:08.471Z,14.96
2023-02-12T09:28:48.170Z,14.98
2023-02-12T09:30:27.935Z,14.95
2023-02-12T09:32:07.696Z,14.9
2023-02-12T09:33:47.466Z,14.86
2023-02-12T09:35:27.232Z,14.84
2023-02-12T09:37:06.987Z,14.85
2023-02-12T09:38:46.742Z,14.87
2023-02-12T09:40:26.516Z,14.8
2023-02-12T09:42:06.285Z,14.84
2023-02-12T09:43:46.035Z,14.83
2023-02-12T09:45:25.799Z,14.92
2023-02-12T09:47:05.564Z,14.96
2023-02-12T09:48:45.330Z,15
2023-02-12T09:50:25.095Z,15.03
2023-02-12T09:52:04.915Z,15.15
2023-02-12T09:53:44.652Z,43.95
2023-02-12T09:55:24.385Z,44.58
2023-02-12T09:57:04.145Z,44.47
2023-02-12T09:58:43.909Z,44.46
2023-02-12T10:00:23.684Z,43.74
2023-02-12T10:02:03.468Z,42.37
2023-02-12T10:03:43.227Z,33.54
2023-02-12T10:05:22.980Z,40.75
2023-02-12T10:07:02.777Z,32.11
2023-02-12T10:08:42.496Z,15.21
2023-02-12T10:10:22.286Z,23.59
2023-02-12T10:12:02.083Z,15.22
2023-02-12T10:13:41.805Z,15.35
2023-02-12T10:15:21.583Z,15.53
2023-02-12T10:17:01.333Z,15.53
2023-02-12T10:18:41.092Z,15.46
2023-02-12T10:20:20.899Z,15.44
2023-02-12T10:22:00.671Z,15.28
2023-02-12T10:23:40.500Z,15.25
2023-02-12T10:25:20.343Z,15.18
2023-02-12T10:27:00.142Z,15.11
2023-02-12T10:28:39.722Z,15.06
2023-02-12T10:30:19.671Z,14.97
2023-02-12T10:31:59.398Z,15
2023-02-12T10:33:39.086Z,14.94
2023-02-12T10:35:18.858Z,15.04
2023-02-12T10:36:58.667Z,15.11
2023-02-12T10:38:38.383Z,15.27
2023-02-12T10:40:18.175Z,15.85
2023-02-12T10:41:57.856Z,45.88
2023-02-12T10:43:37.686Z,43.88
2023-02-12T10:45:17.453Z,44.05
2023-02-12T10:46:57.200Z,43.74
2023-02-12T10:48:36.969Z,44.17
2023-02-12T10:50:16.820Z,44.74
2023-02-12T10:51:56.539Z,45.25
2023-02-12T10:53:36.147Z,45.74
2023-02-12T10:55:16.056Z,45.61
2023-02-12T10:56:55.760Z,45.31
2023-02-12T10:58:35.597Z,44.88
2023-02-12T11:00:15.284Z,44.4
2023-02-12T11:01:55.034Z,44.38
2023-02-12T11:03:34.936Z,43.83
2023-02-12T11:05:14.594Z,42.83
2023-02-12T11:06:54.379Z,42.6
2023-02-12T11:08:34.128Z,42.29
2023-02-12T11:10:13.861Z,41.19
2023-02-12T11:11:53.646Z,39.91
2023-02-12T11:13:33.296Z,40.75
2023-02-12T11:15:13.252Z,42.43
2023-02-12T11:16:52.997Z,41.26
2023-02-12T11:18:32.770Z,41.86
2023-02-12T11:20:12.524Z,41.76
2023-02-12T11:21:52.158Z,41.17
2023-02-12T11:23:32.024Z,42.22
2023-02-12T11:25:11.826Z,42.47
2023-02-12T11:26:51.546Z,43.37
2023-02-12T11:28:31.247Z,43.65
2023-02-12T11:30:11.128Z,45.19
2023-02-12T11:31:50.844Z,45.13
2023-02-12T11:33:30.682Z,44.33
2023-02-12T11:35:10.228Z,44.06
2023-02-12T11:36:49.991Z,44.28
2023-02-12T11:38:29.773Z,44.33
2023-02-12T11:40:09.633Z,43.78
2023-02-12T11:41:49.293Z,42.8
2023-02-12T11:43:29.070Z,41.3
2023-02-12T11:45:09.025Z,38.77
2023-02-12T11:46:48.738Z,35.29
2023-02-12T11:48:28.347Z,19.48
2023-02-12T11:50:08.111Z,14.92
2023-02-12T11:51:47.888Z,21.55
2023-02-12T11:53:27.653Z,14.84
2023-02-12T11:55:07.410Z,14.9
2023-02-12T11:56:47.170Z,15.06
2023-02-12T11:58:26.933Z,15.3
2023-02-12T12:00:06.698Z,15.15
2023-02-12T12:01:46.472Z,15.11
2023-02-12T12:03:26.254Z,46.19
2023-02-12T12:05:05.992Z,46.16
2023-02-12T12:08:25.510Z,43.35
2023-02-12T12:10:05.285Z,42.41
2023-02-12T12:11:45.041Z,41.55
2023-02-12T12:13:24.806Z,41.67
2023-02-12T12:15:04.565Z,38.55
2023-02-12T12:16:44.349Z,41.74
2023-02-12T12:18:24.098Z,42.16
2023-02-12T12:20:03.858Z,41.32
2023-02-12T12:21:43.610Z,42.29
2023-02-12T12:23:23.382Z,40.79
2023-02-12T12:25:03.189Z,42.84
2023-02-12T12:26:42.930Z,44.04
2023-02-12T12:28:22.673Z,43.89
2023-02-12T12:30:02.451Z,43.83
2023-02-12T12:31:42.226Z,41.94
2023-02-12T12:33:22.402Z,41.03
2023-02-12T12:35:01.899Z,41.65
2023-02-12T12:36:41.495Z,43
2023-02-12T12:38:21.373Z,44.79
2023-02-12T12:40:01.071Z,45.8
2023-02-12T12:41:40.789Z,46.28
2023-02-12T12:43:20.564Z,46.79
2023-02-12T12:45:00.352Z,46.19
2023-02-12T12:46:40.079Z,46.71
2023-02-12T12:48:20.017Z,46.47
2023-02-12T12:49:59.797Z,46.41
2023-02-12T12:51:39.553Z,46.28
2023-02-12T12:53:19.230Z,46.24
2023-02-12T12:54:59.123Z,46.51
2023-02-12T12:56:38.746Z,46.67
2023-02-12T12:58:18.569Z,46.76
2023-02-12T12:59:58.234Z,46.35
2023-02-12T13:01:38.163Z,45.65
2023-02-12T13:03:17.887Z,45.61
2023-02-12T13:04:57.653Z,45.7
2023-02-12T13:06:37.372Z,45.04
2023-02-12T13:08:17.055Z,46.33
2023-02-12T13:09:56.794Z,46.11
2023-02-12T13:11:36.542Z,44.86
2023-02-12T13:13:16.296Z,45.35
2023-02-12T13:14:56.063Z,46.09
2023-02-12T13:16:35.853Z,45.42
2023-02-12T13:18:15.593Z,45.48
2023-02-12T13:19:55.415Z,45.96
2023-02-12T13:21:35.135Z,46.68
2023-02-12T13:23:14.893Z,47.58
2023-02-12T13:24:54.712Z,47.33
2023-02-12T13:26:34.416Z,45.93
2023-02-12T13:28:14.195Z,45.93
2023-02-12T13:29:53.979Z,45.87
2023-02-12T13:31:33.791Z,45.02
2023-02-12T13:33:13.520Z,44.78
2023-02-12T13:34:53.255Z,44.74
2023-02-12T13:36:33.015Z,44.27
2023-02-12T13:38:12.763Z,44.8
2023-02-12T13:39:52.600Z,45.39
2023-02-12T13:43:12.085Z,46.31
2023-02-12T13:44:51.906Z,45.9
2023-02-12T13:46:31.601Z,45.89
2023-02-12T13:48:11.376Z,46.69
2023-02-12T13:49:51.202Z,46.63
2023-02-12T13:51:30.938Z,47.41
2023-02-12T13:54:50.413Z,44.52
2023-02-12T13:58:09.951Z,46.36
2023-02-12T13:59:49.696Z,44.92
2023-02-12T14:01:29.530Z,45.21
2023-02-12T14:03:09.309Z,45.73
2023-02-12T14:04:49.014Z,46.59
2023-02-12T14:06:28.830Z,46.57
2023-02-12T14:08:08.586Z,45.93
2023-02-12T14:09:48.395Z,45.85
2023-02-12T14:11:28.055Z,45.76
2023-02-12T14:13:07.811Z,45.18
2023-02-12T14:14:47.634Z,44.76
2023-02-12T14:16:27.360Z,44.5
2023-02-12T14:18:07.156Z,44.24
2023-02-12T14:19:47.020Z,43.96
2023-02-12T14:21:26.779Z,43.48
2023-02-12T14:23:06.467Z,43
2023-02-12T14:24:46.261Z,42.33
2023-02-12T14:26:26.038Z,42.11
2023-02-12T14:28:05.778Z,41.72
2023-02-12T14:29:45.525Z,40.59
2023-02-12T14:31:25.200Z,39.82
2023-02-12T14:33:04.970Z,40.49
2023-02-12T14:34:44.726Z,41.22
2023-02-12T14:36:24.538Z,40.99
2023-02-12T14:38:04.272Z,41.01
2023-02-12T14:39:44.022Z,40.5
2023-02-12T14:41:23.783Z,40.21
2023-02-12T14:43:03.544Z,40.99
2023-02-12T14:44:43.318Z,41.92
2023-02-12T14:46:23.237Z,41.95
2023-02-12T14:48:02.837Z,42.11
2023-02-12T14:51:22.371Z,41.77
2023-02-12T14:53:02.149Z,41.49
2023-02-12T14:54:41.899Z,41.22
2023-02-12T14:56:21.736Z,40.77
2023-02-12T14:58:01.431Z,40.3
2023-02-12T14:59:41.189Z,40.15
2023-02-12T15:01:20.955Z,40.05
2023-02-12T15:03:00.723Z,39.68
2023-02-12T15:04:40.485Z,38.84
2023-02-12T15:06:20.260Z,38.47
2023-02-12T15:08:00.022Z,37.53
2023-02-12T15:09:39.759Z,36.97
2023-02-12T15:11:19.596Z,36.86
2023-02-12T15:12:59.295Z,36.9
2023-02-12T15:14:39.054Z,36.72
2023-02-12T15:16:18.953Z,33.47
2023-02-12T15:17:58.662Z,18.41
2023-02-12T15:19:38.440Z,30.81
2023-02-12T15:21:18.265Z,14.76
2023-02-12T15:22:58.028Z,14.7
2023-02-12T15:24:37.818Z,14.64
2023-02-12T15:27:57.261Z,14.59
2023-02-12T15:29:37.066Z,14.54
2023-02-12T15:31:16.807Z,14.57
2023-02-12T15:32:56.656Z,14.51
2023-02-12T15:34:36.342Z,14.44
2023-02-12T15:36:16.124Z,14.42
2023-02-12T15:37:55.757Z,14.41
2023-02-12T15:39:35.714Z,14.37
2023-02-12T15:41:15.484Z,14.41
2023-02-12T15:42:55.169Z,14.37
2023-02-12T15:44:34.973Z,14.37
2023-02-12T15:46:14.625Z,14.37
2023-02-12T15:47:54.508Z,14.36
2023-02-12T15:49:34.284Z,14.32
2023-02-12T15:51:13.880Z,14.3
2023-02-12T15:52:53.636Z,13.61
2023-02-12T15:54:33.409Z,25.02
2023-02-12T15:56:13.164Z,24.67
2023-02-12T15:57:52.931Z,21.83
2023-02-12T15:59:32.687Z,20.55
2023-02-12T16:01:12.460Z,21.24
2023-02-12T16:02:52.256Z,12.95
2023-02-12T16:04:32.004Z,23.77
2023-02-12T16:06:11.762Z,13.17
2023-02-12T16:07:51.530Z,13.15
2023-02-12T16:09:31.366Z,13.11
2023-02-12T16:11:11.044Z,13.13
2023-02-12T16:12:50.824Z,13.1
2023-02-12T16:14:30.603Z,13.09
2023-02-12T16:16:10.379Z,13.1
2023-02-12T16:17:50.105Z,13.09
2023-02-12T16:19:29.870Z,13.07
2023-02-12T16:21:09.686Z,13.07
2023-02-12T16:22:49.438Z,13.06
2023-02-12T16:24:29.224Z,13.05
2023-02-12T16:26:08.973Z,13.04
2023-02-12T16:27:48.679Z,13.03
2023-02-12T16:29:28.450Z,13.02
2023-02-12T16:31:08.288Z,13.01
2023-02-12T16:32:48.048Z,13
2023-02-12T16:34:27.735Z,12.99
2023-02-12T16:36:07.630Z,12.98
2023-02-12T16:37:47.398Z,12.95
2023-02-12T16:39:27.098Z,12.95
2023-02-12T16:41:06.932Z,12.92
2023-02-12T16:42:46.625Z,12.91
2023-02-12T16:44:26.464Z,12.88
2023-02-12T16:46:06.088Z,12.85
2023-02-12T16:47:45.956Z,10.84
2023-02-12T16:49:25.724Z,8.45
2023-02-12T16:51:05.565Z,6.81
2023-02-12T16:52:45.188Z,5.45
2023-02-12T16:54:24.956Z,4.61
2023-02-12T16:56:04.760Z,3.84
2023-02-12T16:57:44.601Z,3.22
2023-02-12T16:59:24.384Z,2.71
2023-02-12T17:01:04.045Z,2.32
2023-02-12T17:02:43.909Z,1.95
2023-02-12T17:04:23.480Z,1.59
2023-02-12T17:06:03.392Z,1.21
2023-02-12T17:07:43.187Z,0.91
2023-02-12T17:09:22.855Z,0.73
2023-02-12T17:11:02.534Z,0.64
2023-02-12T17:12:42.311Z,0.52
2023-02-12T17:14:22.068Z,0.45
2023-02-12T17:17:41.593Z,0.34
2023-02-12T17:19:21.851Z,0.29
2023-02-12T17:21:01.138Z,0.25
2023-02-12T17:22:40.889Z,0.22
2023-02-12T17:24:20.670Z,0.2
2023-02-12T17:26:00.415Z,0.21
2023-02-12T17:27:40.177Z,0.21
2023-02-12T17:29:20.007Z,0.19
2023-02-12T17:30:59.702Z,0.17
2023-02-12T17:32:39.504Z,0.15
2023-02-12T17:34:19.229Z,0.17
2023-02-12T17:35:59.052Z,0.17
2023-02-12T17:37:38.779Z,0.18
2023-02-12T17:39:18.625Z,0.18
2023-02-12T17:40:58.365Z,0.18
2023-02-12T17:42:38.053Z,0.2
2023-02-12T17:44:17.940Z,0.21
2023-02-12T17:47:37.499Z,0.2
2023-02-12T17:49:17.147Z,0.19
2023-02-12T17:50:56.882Z,0.17
2023-02-12T17:52:36.671Z,0.17
2023-02-12T17:54:16.488Z,0.18
2023-02-12T17:59:15.744Z,0.14
2023-02-12T18:00:55.482Z,0.13
2023-02-12T18:04:14.982Z,0.13
2023-02-12T18:05:54.889Z,0.16
2023-02-12T18:07:34.664Z,0.16
2023-02-12T18:09:14.473Z,0.16
2023-02-12T18:10:54.031Z,0.18
2023-02-12T18:12:33.816Z,0.18
2023-02-12T18:14:13.567Z,0.18
2023-02-12T18:15:53.412Z,0.16
2023-02-12T18:17:33.197Z,0.17
2023-02-12T18:19:13.060Z,0.19
2023-02-12T18:20:52.656Z,0.19
2023-02-12T18:22:32.418Z,0.21
2023-02-12T18:24:12.241Z,0.19
2023-02-12T18:27:31.683Z,0.15
2023-02-12T18:29:11.442Z,0.17
2023-02-12T18:30:51.215Z,0.13
2023-02-12T18:32:30.961Z,0.11
2023-02-12T18:34:10.735Z,0.09
2023-02-12T18:35:50.496Z,0.09
2023-02-12T18:37:30.307Z,0.07
2023-02-12T18:39:10.020Z,0.07
2023-02-12T18:42:29.549Z,0.11
2023-02-12T18:44:09.329Z,0.13
2023-02-12T18:45:49.103Z,0.13
2023-02-12T18:47:28.828Z,0.15
2023-02-12T18:49:08.614Z,0.15
2023-02-12T18:50:48.405Z,0.15
2023-02-12T18:52:28.150Z,0.12
2023-02-12T18:54:07.978Z,0.14
2023-02-12T18:55:47.668Z,0.14
2023-02-12T18:57:27.458Z,0.17
2023-02-12T18:59:07.290Z,0.17
2023-02-12T19:00:46.952Z,0.13
2023-02-12T19:04:06.481Z,0.14
2023-02-12T19:05:46.252Z,0.14
2023-02-12T19:07:26.114Z,0.13
2023-02-12T19:09:05.809Z,0.07
2023-02-12T19:10:45.628Z,0.07
2023-02-12T19:12:25.344Z,0.06
2023-02-12T19:14:05.059Z,0.06
2023-02-12T19:17:24.698Z,0.06
2023-02-12T19:19:04.358Z,0.06
2023-02-12T19:22:23.925Z,0.09
2023-02-12T19:24:03.773Z,0.11
2023-02-12T19:25:43.399Z,0.11
2023-02-12T19:27:23.304Z,0.11
2023-02-12T19:29:03.143Z,0.13
2023-02-12T19:34:02.309Z,0.15
2023-02-12T19:35:42.140Z,0.17
2023-02-12T19:37:21.963Z,0.17
2023-02-12T19:39:01.689Z,0.17
2023-02-12T19:40:41.390Z,0.18
2023-02-12T19:44:00.980Z,0.18
2023-02-12T19:45:40.663Z,0.2
2023-02-12T19:47:20.347Z,0.18
2023-02-12T19:49:00.121Z,0.18
2023-02-12T19:50:39.874Z,0.18
2023-02-12T19:52:19.642Z,0.16
2023-02-12T19:53:59.404Z,0.14
2023-02-12T19:55:39.157Z,0.12
2023-02-12T19:57:18.933Z,0.12
2023-02-12T19:58:58.693Z,0.13
2023-02-12T20:00:38.448Z,0.15
2023-02-12T20:03:57.985Z,0.18
2023-02-12T20:07:17.521Z,0.16
2023-02-12T20:08:57.269Z,0.16
2023-02-12T20:10:37.046Z,0.16
2023-02-12T20:12:16.803Z,0.17
2023-02-12T20:13:56.573Z,0.18
2023-02-12T20:15:36.334Z,0.19
2023-02-12T20:17:16.097Z,0.18
2023-02-12T20:18:55.864Z,0.18
2023-02-12T20:20:35.624Z,0.2
2023-02-12T20:22:15.387Z,0.19
2023-02-12T20:23:55.146Z,0.17
2023-02-12T20:25:34.915Z,0.16
2023-02-12T20:27:14.672Z,0.16
2023-02-12T20:28:54.437Z,0.21
2023-02-12T20:30:34.201Z,0.23
2023-02-12T20:32:13.960Z,0.2
2023-02-12T20:33:53.745Z,0.15
2023-02-12T20:35:33.503Z,0.15
2023-02-12T20:37:13.261Z,0.15
2023-02-12T20:38:53.022Z,0.17
2023-02-12T20:40:32.786Z,0.18
2023-02-12T20:42:12.564Z,0.16
2023-02-12T20:43:52.317Z,0.16
2023-02-12T20:45:32.089Z,0.18
2023-02-12T20:47:11.833Z,0.16
2023-02-12T20:48:51.617Z,0.16
2023-02-12T20:50:31.383Z,0.18
2023-02-12T20:52:11.151Z,0.18
2023-02-12T20:53:50.941Z,0.18
2023-02-12T20:55:30.654Z,0.2
2023-02-12T20:57:10.470Z,0.2
2023-02-12T20:58:50.175Z,0.19
2023-02-12T21:00:30.110Z,0.2
2023-02-12T21:02:09.783Z,0.22
2023-02-12T21:03:49.470Z,0.22
2023-02-12T21:05:29.238Z,0.2
2023-02-12T21:07:09.259Z,0.2
2023-02-12T21:08:48.939Z,0.19
2023-02-12T21:10:28.699Z,0.19
2023-02-12T21:12:08.435Z,0.19
2023-02-12T21:13:48.186Z,0.19
2023-02-12T21:15:27.994Z,0.21
2023-02-12T21:17:07.585Z,0.19
2023-02-12T21:18:47.350Z,0.21
2023-02-12T21:20:27.372Z,0.2
2023-02-12T21:22:07.011Z,0.22
2023-02-12T21:23:46.808Z,0.22
2023-02-12T21:25:26.564Z,0.22
2023-02-12T21:27:06.385Z,0.21
2023-02-12T21:28:45.920Z,0.23
2023-02-12T21:30:25.806Z,0.21
2023-02-12T21:32:05.506Z,0.21
2023-02-12T21:33:45.365Z,0.19
2023-02-12T21:35:25.121Z,0.21
2023-02-12T21:37:04.911Z,0.21
2023-02-12T21:38:44.676Z,0.21
2023-02-12T21:40:24.461Z,0.21
2023-02-12T21:42:04.034Z,0.21
2023-02-12T21:43:43.992Z,0.19
2023-02-12T21:45:23.681Z,0.2
2023-02-12T21:47:03.584Z,0.2
2023-02-12T21:48:43.279Z,0.2
2023-02-12T21:50:23.005Z,0.2
2023-02-12T21:52:02.840Z,0.22
2023-02-12T21:53:42.532Z,0.22
2023-02-12T21:55:22.291Z,0.22
2023-02-12T21:57:02.089Z,0.22
2023-02-12T21:58:41.835Z,0.22
2023-02-12T22:00:21.582Z,0.23
2023-02-12T22:02:01.196Z,0.23
2023-02-12T22:03:40.992Z,0.23
2023-02-12T22:05:20.881Z,0.23
2023-02-12T22:07:00.662Z,0.22
2023-02-12T22:08:40.357Z,0.22
2023-02-12T22:10:20.021Z,0.22
2023-02-12T22:11:59.942Z,0.23
2023-02-12T22:13:39.711Z,0.23
2023-02-12T22:15:19.453Z,0.21
2023-02-12T22:16:59.065Z,0.23
2023-02-12T22:18:38.846Z,0.21
2023-02-12T22:20:18.691Z,0.21
2023-02-12T22:23:38.342Z,0.21
2023-02-12T22:25:18.081Z,0.22
2023-02-12T22:26:57.836Z,0.22
2023-02-12T22:28:37.564Z,0.22
2023-02-12T22:30:17.183Z,0.22